Aviation Digital Data Service (ADDS)

Output produced by METARs form (0745 UTC 28 February 2017)
found at http://aviationweather.gov/adds/metars/
 
KBDR 280541Z 2806/0106 VRB02KT P6SM OVC080 
     FM281100 10004KT P6SM BKN070 
     FM281700 12007KT P6SM SCT040 BKN200 
     FM282100 13007KT P6SM BKN020 OVC040 
     FM010200 13007KT 3SM -RA BR BKN006 OVC010 
     FM010400 14008KT 1SM RA BR OVC004